createdAt,value
2017-12-02T00:00:30.518Z,25.45
2017-12-02T00:02:58.052Z,25.92
2017-12-02T00:05:26.372Z,26.15
2017-12-02T00:07:53.914Z,26.90
2017-12-02T00:10:21.463Z,26.83
2017-12-02T00:12:49.024Z,27.00
2017-12-02T00:15:16.606Z,27.87
2017-12-02T00:17:44.157Z,26.27
2017-12-02T00:20:11.720Z,26.17
2017-12-02T00:22:39.393Z,24.23
2017-12-02T00:25:06.950Z,27.25
2017-12-02T00:27:34.537Z,26.15
2017-12-02T00:30:02.085Z,28.38
2017-12-02T00:32:29.641Z,25.08
2017-12-02T00:34:57.282Z,26.77
2017-12-02T00:37:24.830Z,24.95
2017-12-02T00:39:52.513Z,26.05
2017-12-02T00:42:20.056Z,25.00
2017-12-02T00:44:47.605Z,26.80
2017-12-02T00:47:15.144Z,27.13
2017-12-02T00:49:43.473Z,26.50
2017-12-02T00:52:11.165Z,25.77
2017-12-02T00:54:38.711Z,25.52
2017-12-02T00:57:06.237Z,24.55
2017-12-02T00:59:34.573Z,25.75
2017-12-02T01:02:02.124Z,25.33
2017-12-02T01:04:29.657Z,25.30
2017-12-02T01:06:57.217Z,24.17
2017-12-02T01:09:24.805Z,25.08
2017-12-02T01:11:52.365Z,25.33
2017-12-02T01:14:19.913Z,24.45
2017-12-02T01:16:47.482Z,28.83
2017-12-02T01:19:15.017Z,26.95
2017-12-02T01:21:42.557Z,24.55
2017-12-02T01:24:10.115Z,24.95
2017-12-02T01:26:38.427Z,25.00
2017-12-02T01:29:05.988Z,25.95
2017-12-02T01:31:33.516Z,23.48
2017-12-02T01:34:01.075Z,22.67
2017-12-02T01:36:28.625Z,27.55
2017-12-02T01:38:56.948Z,25.85
2017-12-02T01:41:24.481Z,24.35
2017-12-02T01:43:52.032Z,25.00
2017-12-02T01:46:19.570Z,24.70
2017-12-02T01:48:47.893Z,25.27
2017-12-02T01:51:15.442Z,24.83
2017-12-02T01:53:42.991Z,25.42
2017-12-02T01:56:10.520Z,28.85
2017-12-02T01:58:38.050Z,28.02
2017-12-02T02:01:05.618Z,26.85
2017-12-02T02:03:33.153Z,30.25
2017-12-02T02:06:01.093Z,26.92
2017-12-02T02:08:28.621Z,27.77
2017-12-02T02:10:56.207Z,26.55
2017-12-02T02:13:24.539Z,27.62
2017-12-02T02:15:52.135Z,29.30
2017-12-02T02:18:20.450Z,28.23
2017-12-02T02:20:47.973Z,27.45
2017-12-02T02:23:16.297Z,26.85
2017-12-02T02:25:43.829Z,27.00
2017-12-02T02:28:11.378Z,27.67
2017-12-02T02:30:38.909Z,27.02
2017-12-02T02:33:06.463Z,29.00
2017-12-02T02:35:34.769Z,26.55
2017-12-02T02:38:02.347Z,29.65
2017-12-02T02:40:29.884Z,30.17
2017-12-02T02:42:57.417Z,28.70
2017-12-02T02:45:25.780Z,30.80
2017-12-02T02:47:53.327Z,28.33
2017-12-02T02:50:20.884Z,27.85
2017-12-02T02:52:48.437Z,28.05
2017-12-02T02:55:16.011Z,28.55
2017-12-02T02:57:43.540Z,27.23
2017-12-02T03:00:11.097Z,26.27
2017-12-02T03:02:38.654Z,26.67
2017-12-02T03:05:06.219Z,25.75
2017-12-02T03:07:33.754Z,24.63
2017-12-02T03:10:01.310Z,23.48
2017-12-02T03:12:30.489Z,27.13
2017-12-02T03:14:58.058Z,27.25
2017-12-02T03:17:26.375Z,25.60
2017-12-02T03:19:53.921Z,25.08
2017-12-02T03:22:21.468Z,26.98
2017-12-02T03:24:49.819Z,26.52
2017-12-02T03:27:17.356Z,24.42
2017-12-02T03:29:44.921Z,25.40
2017-12-02T03:32:13.478Z,25.45
2017-12-02T03:34:41.042Z,28.08
2017-12-02T03:37:09.469Z,27.62
2017-12-02T03:39:37.008Z,27.00
2017-12-02T03:42:04.577Z,29.35
2017-12-02T03:44:32.105Z,30.52
2017-12-02T03:46:59.652Z,30.98
2017-12-02T03:49:27.958Z,28.90
2017-12-02T03:51:55.508Z,27.20
2017-12-02T03:54:23.037Z,28.67
2017-12-02T03:56:50.602Z,28.42
2017-12-02T03:59:18.144Z,31.50
2017-12-02T04:01:45.709Z,29.52
2017-12-02T04:04:13.271Z,29.12
2017-12-02T04:06:40.829Z,31.55
2017-12-02T04:09:10.200Z,30.42
2017-12-02T04:11:38.502Z,29.65
2017-12-02T04:14:06.046Z,28.50
2017-12-02T04:16:34.353Z,28.20
2017-12-02T04:19:01.905Z,25.40
2017-12-02T04:21:29.478Z,26.60
2017-12-02T04:23:57.031Z,24.75
2017-12-02T04:26:24.601Z,25.40
2017-12-02T04:28:52.156Z,24.95
2017-12-02T04:31:19.690Z,25.77
2017-12-02T04:33:47.242Z,25.48
2017-12-02T04:36:14.794Z,29.00
2017-12-02T04:38:42.339Z,26.92
2017-12-02T04:41:09.898Z,26.30
2017-12-02T04:43:37.438Z,27.30
2017-12-02T04:46:04.996Z,25.27
2017-12-02T04:48:32.538Z,26.90
2017-12-02T04:51:00.851Z,23.05
2017-12-02T04:53:28.392Z,26.70
2017-12-02T04:55:55.958Z,25.80
2017-12-02T04:58:23.508Z,25.17
2017-12-02T05:00:51.821Z,24.23
2017-12-02T05:03:19.368Z,25.62
2017-12-02T05:05:46.908Z,24.50
2017-12-02T05:08:14.473Z,25.02
2017-12-02T05:10:42.009Z,24.85
2017-12-02T05:13:10.426Z,27.35
2017-12-02T05:15:37.969Z,29.10
2017-12-02T05:18:05.529Z,26.37
2017-12-02T05:20:33.061Z,26.67
2017-12-02T05:23:00.645Z,25.65
2017-12-02T05:25:28.228Z,26.60
2017-12-02T05:27:55.792Z,25.60
2017-12-02T05:30:23.338Z,26.08
2017-12-02T05:32:50.896Z,28.27
2017-12-02T05:35:19.218Z,26.08
2017-12-02T05:37:46.778Z,25.88
2017-12-02T05:40:14.335Z,27.95
2017-12-02T05:42:41.877Z,26.02
2017-12-02T05:45:09.430Z,24.85
2017-12-02T05:47:37.731Z,23.52
2017-12-02T05:50:05.285Z,21.87
2017-12-02T05:52:32.816Z,25.02
2017-12-02T05:55:01.140Z,23.92
2017-12-02T05:57:28.680Z,24.40
2017-12-02T05:59:56.220Z,27.45
2017-12-02T06:02:23.780Z,25.12
2017-12-02T06:04:51.307Z,24.70
2017-12-02T06:07:19.431Z,25.58
2017-12-02T06:09:46.957Z,26.30
2017-12-02T06:12:15.284Z,26.58
2017-12-02T06:14:43.180Z,26.10
2017-12-02T06:17:11.493Z,25.23
2017-12-02T06:19:39.039Z,24.65
2017-12-02T06:22:06.605Z,24.75
2017-12-02T06:24:34.141Z,21.92
2017-12-02T06:27:01.735Z,22.13
2017-12-02T06:29:29.275Z,24.20
2017-12-02T06:31:56.849Z,24.10
2017-12-02T06:34:25.185Z,24.73
2017-12-02T06:36:53.501Z,23.35
2017-12-02T06:39:21.054Z,23.65
2017-12-02T06:41:48.597Z,23.85
2017-12-02T06:44:16.158Z,23.67
2017-12-02T06:46:43.712Z,25.35
2017-12-02T06:49:12.028Z,24.12
2017-12-02T06:51:39.577Z,23.08
2017-12-02T06:54:07.144Z,23.92
2017-12-02T06:56:34.697Z,25.15
2017-12-02T06:59:02.253Z,26.48
2017-12-02T07:01:29.801Z,25.50
2017-12-02T07:03:57.352Z,25.73
2017-12-02T07:06:24.918Z,25.25
2017-12-02T07:08:52.453Z,23.62
2017-12-02T07:11:20.785Z,24.30
2017-12-02T07:13:48.343Z,22.55
2017-12-02T07:16:15.936Z,23.15
2017-12-02T07:18:44.416Z,27.42
2017-12-02T07:21:11.968Z,25.33
2017-12-02T07:23:39.552Z,24.55
2017-12-02T07:26:07.880Z,25.08
2017-12-02T07:28:35.429Z,25.95
2017-12-02T07:31:03.754Z,23.65
2017-12-02T07:33:31.312Z,24.73
2017-12-02T07:35:58.861Z,20.95
2017-12-02T07:38:26.408Z,21.87
2017-12-02T07:40:53.953Z,22.05
2017-12-02T07:43:21.503Z,21.45
2017-12-02T07:45:49.739Z,20.30
2017-12-02T07:48:18.065Z,18.33
2017-12-02T07:50:45.648Z,18.50
2017-12-02T07:53:13.221Z,18.55
2017-12-02T07:55:40.757Z,20.15
2017-12-02T07:58:08.309Z,21.70
2017-12-02T08:00:35.838Z,18.80
2017-12-02T08:03:03.400Z,18.98
2017-12-02T08:05:30.943Z,19.02
2017-12-02T08:07:59.310Z,18.05
2017-12-02T08:10:27.609Z,18.70
2017-12-02T08:12:55.169Z,16.80
2017-12-02T08:15:22.727Z,18.55
2017-12-02T08:17:50.268Z,18.75
2017-12-02T08:20:18.602Z,19.37
2017-12-02T08:22:46.908Z,21.37
2017-12-02T08:25:14.467Z,19.60
2017-12-02T08:27:42.000Z,22.25
2017-12-02T08:30:10.332Z,19.90
2017-12-02T08:32:37.881Z,19.92
2017-12-02T08:35:05.440Z,19.30
2017-12-02T08:37:32.965Z,20.33
2017-12-02T08:40:00.545Z,17.00
2017-12-02T08:42:28.094Z,18.33
2017-12-02T08:44:55.663Z,19.70
2017-12-02T08:47:23.225Z,21.95
2017-12-02T08:49:50.778Z,20.95
2017-12-02T08:52:18.346Z,16.15
2017-12-02T08:54:45.921Z,17.85
2017-12-02T08:57:13.466Z,18.23
2017-12-02T08:59:41.038Z,18.17
2017-12-02T09:02:08.585Z,18.42
2017-12-02T09:04:38.928Z,18.80
2017-12-02T09:07:06.480Z,18.12
2017-12-02T09:09:34.798Z,16.85
2017-12-02T09:12:02.337Z,17.83
2017-12-02T09:14:29.887Z,17.42
2017-12-02T09:16:57.554Z,18.27
2017-12-02T09:19:25.096Z,19.17
2017-12-02T09:21:52.677Z,16.10
2017-12-02T09:24:20.256Z,16.55
2017-12-02T09:26:47.804Z,18.52
2017-12-02T09:29:15.370Z,19.77
2017-12-02T09:31:42.923Z,15.90
2017-12-02T09:34:10.470Z,17.70
2017-12-02T09:36:40.472Z,17.10
2017-12-02T09:39:09.617Z,16.15
2017-12-02T09:41:38.191Z,17.25
2017-12-02T09:44:06.240Z,15.93
2017-12-02T09:46:35.334Z,17.37
2017-12-02T09:49:02.889Z,16.30
2017-12-02T09:51:30.436Z,15.38
2017-12-02T09:53:57.997Z,16.37
2017-12-02T09:56:25.558Z,12.93
2017-12-02T09:58:53.118Z,16.10
2017-12-02T10:01:20.681Z,15.85
2017-12-02T10:03:48.249Z,13.07
2017-12-02T10:06:15.819Z,16.52
2017-12-02T10:08:43.376Z,14.48
2017-12-02T10:11:10.942Z,20.05
2017-12-02T10:13:39.263Z,15.88
2017-12-02T10:16:06.890Z,15.50
2017-12-02T10:18:35.200Z,15.70
2017-12-02T10:21:02.768Z,14.10
2017-12-02T10:23:30.396Z,15.55
2017-12-02T10:25:57.988Z,15.00
2017-12-02T10:28:25.600Z,16.52
2017-12-02T10:30:53.960Z,16.95
2017-12-02T10:33:21.536Z,16.50
2017-12-02T10:35:49.097Z,16.90
2017-12-02T10:38:17.428Z,16.02
2017-12-02T10:40:44.972Z,17.20
2017-12-02T10:43:12.558Z,15.00
2017-12-02T10:45:40.125Z,15.23
2017-12-02T10:48:07.677Z,15.65
2017-12-02T10:50:35.219Z,16.02
2017-12-02T10:53:02.792Z,14.70
2017-12-02T10:55:30.339Z,15.93
2017-12-02T10:57:57.941Z,14.60
2017-12-02T11:00:25.510Z,14.35
2017-12-02T11:02:53.098Z,14.40
2017-12-02T11:05:21.412Z,15.68
2017-12-02T11:07:48.981Z,12.00
2017-12-02T11:10:16.524Z,11.60
2017-12-02T11:12:44.113Z,12.95
2017-12-02T11:15:11.729Z,15.82
2017-12-02T11:17:39.345Z,13.25
2017-12-02T11:20:06.913Z,14.85
2017-12-02T11:22:34.456Z,13.88
2017-12-02T11:25:02.029Z,14.48
2017-12-02T11:27:29.582Z,14.82
2017-12-02T11:29:57.141Z,16.00
2017-12-02T11:32:24.689Z,17.48
2017-12-02T11:34:52.257Z,19.25
2017-12-02T11:37:19.810Z,17.15
2017-12-02T11:39:47.386Z,19.35
2017-12-02T11:42:14.968Z,17.73
2017-12-02T11:44:42.529Z,22.37
2017-12-02T11:47:10.077Z,19.58
2017-12-02T11:49:37.620Z,18.77
2017-12-02T11:52:05.182Z,16.90
2017-12-02T11:54:32.705Z,17.12
2017-12-02T11:57:01.021Z,18.90
2017-12-02T11:59:28.597Z,19.87
2017-12-02T12:01:56.157Z,17.12
2017-12-02T12:04:23.698Z,15.95
2017-12-02T12:06:51.243Z,15.90
2017-12-02T12:09:18.806Z,17.92
2017-12-02T12:11:46.345Z,17.20
2017-12-02T12:14:14.708Z,16.85
2017-12-02T12:16:42.262Z,14.25
2017-12-02T12:19:10.581Z,13.95
2017-12-02T12:21:38.132Z,15.52
2017-12-02T12:24:05.681Z,14.98
2017-12-02T12:26:33.214Z,18.75
2017-12-02T12:29:00.828Z,15.27
2017-12-02T12:31:28.364Z,16.85
2017-12-02T12:33:55.925Z,15.07
2017-12-02T12:36:24.154Z,16.80
2017-12-02T12:38:52.472Z,17.65
2017-12-02T12:41:20.098Z,16.02
2017-12-02T12:43:48.639Z,18.00
2017-12-02T12:46:16.524Z,17.23
2017-12-02T12:48:44.283Z,16.37
2017-12-02T12:51:12.144Z,15.50
2017-12-02T12:53:39.904Z,16.87
2017-12-02T12:56:07.766Z,16.02
2017-12-02T12:58:35.503Z,16.90
2017-12-02T13:01:03.601Z,15.90
2017-12-02T13:03:31.375Z,16.12
2017-12-02T13:05:58.918Z,14.65
2017-12-02T13:08:26.500Z,14.82
2017-12-02T13:10:54.325Z,14.57
2017-12-02T13:13:22.194Z,15.80
2017-12-02T13:15:49.926Z,16.50
2017-12-02T13:18:17.475Z,16.48
2017-12-02T13:20:45.208Z,18.23
2017-12-02T13:23:12.922Z,16.20
2017-12-02T13:25:40.699Z,14.15
2017-12-02T13:28:08.264Z,13.90
2017-12-02T13:30:36.036Z,13.00
2017-12-02T13:33:04.354Z,12.80
2017-12-02T13:35:32.162Z,11.90
2017-12-02T13:38:00.018Z,12.52
2017-12-02T13:40:27.892Z,12.23
2017-12-02T13:42:55.636Z,21.58
2017-12-02T13:45:23.424Z,12.70
2017-12-02T13:47:52.678Z,13.75
2017-12-02T13:50:20.249Z,11.20
2017-12-02T13:52:47.785Z,12.18
2017-12-02T13:55:15.352Z,12.77
2017-12-02T13:57:42.889Z,13.07
2017-12-02T14:00:11.204Z,14.07
2017-12-02T14:02:38.772Z,13.10
2017-12-02T14:05:06.313Z,13.27
2017-12-02T14:07:33.876Z,13.05
2017-12-02T14:10:01.443Z,14.43
2017-12-02T14:12:29.096Z,13.40
2017-12-02T14:14:56.793Z,15.15
2017-12-02T14:17:24.434Z,14.75
2017-12-02T14:19:52.210Z,15.60
2017-12-02T14:22:22.647Z,16.83
2017-12-02T14:24:50.430Z,16.77
2017-12-02T14:27:18.203Z,18.58
2017-12-02T14:29:46.045Z,17.80
2017-12-02T14:32:13.616Z,15.63
2017-12-02T14:34:41.184Z,15.82
2017-12-02T14:37:08.762Z,17.20
2017-12-02T14:39:37.105Z,16.45
2017-12-02T14:42:04.652Z,15.90
2017-12-02T14:44:33.309Z,17.62
2017-12-02T14:47:01.002Z,17.37
2017-12-02T14:49:28.569Z,15.73
2017-12-02T14:51:56.098Z,17.25
2017-12-02T14:54:23.657Z,18.98
2017-12-02T14:56:51.229Z,17.40
2017-12-02T14:59:18.752Z,17.02
2017-12-02T15:01:47.081Z,18.62
2017-12-02T15:04:14.639Z,17.00
2017-12-02T15:06:42.188Z,16.50
2017-12-02T15:09:09.844Z,16.23
2017-12-02T15:11:37.425Z,15.77
2017-12-02T15:14:05.886Z,13.80
2017-12-02T15:16:33.447Z,15.95
2017-12-02T15:19:00.996Z,14.90
2017-12-02T15:21:28.553Z,13.90
2017-12-02T15:23:56.095Z,12.98
2017-12-02T15:26:24.529Z,12.00
2017-12-02T15:28:52.063Z,12.02
2017-12-02T15:31:19.645Z,14.68
2017-12-02T15:33:47.178Z,14.87
2017-12-02T15:36:14.796Z,12.10
2017-12-02T15:38:43.113Z,11.88
2017-12-02T15:41:10.656Z,12.43
2017-12-02T15:43:38.222Z,12.35
2017-12-02T15:46:05.792Z,12.40
2017-12-02T15:48:34.010Z,11.30
2017-12-02T15:51:02.330Z,11.55
2017-12-02T15:53:30.136Z,11.43
2017-12-02T15:56:00.374Z,10.75
2017-12-02T15:58:28.846Z,12.32
2017-12-02T16:00:56.801Z,12.35
2017-12-02T16:03:24.673Z,11.75
2017-12-02T16:05:52.239Z,12.63
2017-12-02T16:08:19.822Z,14.10
2017-12-02T16:10:48.129Z,14.68
2017-12-02T16:13:15.700Z,13.95
2017-12-02T16:15:43.251Z,12.23
2017-12-02T16:18:10.798Z,13.75
2017-12-02T16:20:38.360Z,12.30
2017-12-02T16:23:05.937Z,12.48
2017-12-02T16:25:33.487Z,14.05
2017-12-02T16:28:01.053Z,13.00
2017-12-02T16:30:29.388Z,13.75
2017-12-02T16:32:56.948Z,13.80
2017-12-02T16:35:24.491Z,13.48
2017-12-02T16:37:52.052Z,15.55
2017-12-02T16:40:19.607Z,13.27
2017-12-02T16:42:47.174Z,14.00
2017-12-02T16:45:14.752Z,12.80
2017-12-02T16:47:42.324Z,14.48
2017-12-02T16:50:09.873Z,15.05
2017-12-02T16:52:37.437Z,14.80
2017-12-02T16:55:04.973Z,13.73
2017-12-02T16:57:33.296Z,14.85
2017-12-02T17:00:00.876Z,16.08
2017-12-02T17:02:28.435Z,14.30
2017-12-02T17:04:56.001Z,14.07
2017-12-02T17:07:24.335Z,16.62
2017-12-02T17:09:51.901Z,15.02
2017-12-02T17:12:19.569Z,16.15
2017-12-02T17:14:47.123Z,14.93
2017-12-02T17:17:14.733Z,16.92
2017-12-02T17:19:42.297Z,18.55
2017-12-02T17:22:09.851Z,18.17
2017-12-02T17:24:37.421Z,18.90
2017-12-02T17:27:05.733Z,18.50
2017-12-02T17:29:33.287Z,16.65
2017-12-02T17:32:00.853Z,17.37
2017-12-02T17:34:28.428Z,17.17
2017-12-02T17:36:57.119Z,17.83
2017-12-02T17:39:24.910Z,16.95
2017-12-02T17:41:53.765Z,16.15
2017-12-02T17:44:22.097Z,16.67
2017-12-02T17:46:50.046Z,17.20
2017-12-02T17:49:18.615Z,16.62
2017-12-02T17:51:46.683Z,16.45
2017-12-02T17:54:14.470Z,17.50
2017-12-02T17:56:43.000Z,14.85
2017-12-02T17:59:12.962Z,17.83
2017-12-02T18:01:40.557Z,17.92
2017-12-02T18:04:08.872Z,17.15
2017-12-02T18:06:36.442Z,17.60
2017-12-02T18:09:04.011Z,15.68
2017-12-02T18:11:31.572Z,16.35
2017-12-02T18:13:59.130Z,15.52
2017-12-02T18:16:26.689Z,16.58
2017-12-02T18:18:54.223Z,18.25
2017-12-02T18:21:21.762Z,17.80
2017-12-02T18:23:49.389Z,19.20
2017-12-02T18:26:17.691Z,18.90
2017-12-02T18:28:45.259Z,17.37
2017-12-02T18:31:12.796Z,18.33
2017-12-02T18:33:40.348Z,16.87
2017-12-02T18:36:08.654Z,18.02
2017-12-02T18:38:36.207Z,16.65
2017-12-02T18:41:03.763Z,17.05
2017-12-02T18:43:31.308Z,16.20
2017-12-02T18:45:59.643Z,17.90
2017-12-02T18:48:27.189Z,15.63
2017-12-02T18:50:54.774Z,17.60
2017-12-02T18:53:22.337Z,16.02
2017-12-02T18:55:49.869Z,16.55
2017-12-02T18:58:17.419Z,16.98
2017-12-02T19:00:44.996Z,16.85
2017-12-02T19:03:12.534Z,15.75
2017-12-02T19:05:40.123Z,15.48
2017-12-02T19:08:07.670Z,14.77
2017-12-02T19:10:35.232Z,17.87
2017-12-02T19:13:02.801Z,17.70
2017-12-02T19:15:30.330Z,16.20
2017-12-02T19:17:58.668Z,17.52
2017-12-02T19:20:26.244Z,16.48
2017-12-02T19:22:53.808Z,17.62
2017-12-02T19:25:22.139Z,17.25
2017-12-02T19:27:49.892Z,18.27
2017-12-02T19:30:17.456Z,18.90
2017-12-02T19:32:45.027Z,17.58
2017-12-02T19:35:12.586Z,17.48
2017-12-02T19:37:40.167Z,18.25
2017-12-02T19:40:07.714Z,17.70
2017-12-02T19:42:35.294Z,18.12
2017-12-02T19:45:03.636Z,19.25
2017-12-02T19:47:31.241Z,19.52
2017-12-02T19:49:58.769Z,18.85
2017-12-02T19:52:26.341Z,18.05
2017-12-02T19:54:53.895Z,18.30
2017-12-02T19:57:21.478Z,19.17
2017-12-02T19:59:49.037Z,19.70
2017-12-02T20:02:16.584Z,21.40
2017-12-02T20:04:44.150Z,19.35
2017-12-02T20:07:11.701Z,16.45
2017-12-02T20:09:39.308Z,19.25
2017-12-02T20:12:07.612Z,17.87
2017-12-02T20:14:35.181Z,17.95
2017-12-02T20:17:02.733Z,17.35
2017-12-02T20:19:30.886Z,15.73
2017-12-02T20:21:58.425Z,16.90
2017-12-02T20:24:27.177Z,16.67
2017-12-02T20:26:54.763Z,25.77
2017-12-02T20:29:22.292Z,22.45
2017-12-02T20:31:49.862Z,16.30
2017-12-02T20:34:17.420Z,17.40
2017-12-02T20:36:44.992Z,18.77
2017-12-02T20:39:12.537Z,19.05
2017-12-02T20:41:40.099Z,17.87
2017-12-02T20:44:07.636Z,15.32
2017-12-02T20:46:35.197Z,16.95
2017-12-02T20:49:02.783Z,16.58
2017-12-02T20:51:30.365Z,16.98
2017-12-02T20:53:58.731Z,17.73
2017-12-02T20:56:26.305Z,18.15
2017-12-02T20:58:54.636Z,14.82
2017-12-02T21:01:22.193Z,16.50
2017-12-02T21:03:49.769Z,14.40
2017-12-02T21:06:21.771Z,14.15
2017-12-02T21:08:49.473Z,14.55
2017-12-02T21:11:17.729Z,14.07
2017-12-02T21:13:45.294Z,13.27
2017-12-02T21:16:13.138Z,15.40
2017-12-02T21:18:40.919Z,14.85
2017-12-02T21:21:08.562Z,14.77
2017-12-02T21:23:36.145Z,14.27
2017-12-02T21:26:03.708Z,15.85
2017-12-02T21:28:31.280Z,14.48
2017-12-02T21:30:58.816Z,14.52
2017-12-02T21:33:26.395Z,15.70
2017-12-02T21:35:53.970Z,14.68
2017-12-02T21:38:21.826Z,14.95
2017-12-02T21:40:49.694Z,15.40
2017-12-02T21:43:17.765Z,14.27
2017-12-02T21:45:45.526Z,15.65
2017-12-02T21:48:13.376Z,13.93
2017-12-02T21:50:42.783Z,14.23
2017-12-02T21:53:10.689Z,14.77
2017-12-02T21:55:39.148Z,14.75
2017-12-02T21:58:06.915Z,14.02
2017-12-02T22:00:35.044Z,13.27
2017-12-02T22:03:02.835Z,14.32
2017-12-02T22:05:31.028Z,14.65
2017-12-02T22:07:58.900Z,13.57
2017-12-02T22:10:26.763Z,13.07
2017-12-02T22:12:55.549Z,17.48
2017-12-02T22:15:23.323Z,14.18
2017-12-02T22:17:51.146Z,13.75
2017-12-02T22:20:18.720Z,15.48
2017-12-02T22:22:47.105Z,14.75
2017-12-02T22:25:14.773Z,14.68
2017-12-02T22:27:42.559Z,13.93
2017-12-02T22:30:10.415Z,12.85
2017-12-02T22:32:38.437Z,12.95
2017-12-02T22:35:06.001Z,13.77
2017-12-02T22:37:33.556Z,14.80
2017-12-02T22:40:01.137Z,14.25
2017-12-02T22:42:28.679Z,13.50
2017-12-02T22:44:56.237Z,12.75
2017-12-02T22:47:23.794Z,13.50
2017-12-02T22:49:51.355Z,14.75
2017-12-02T22:52:18.888Z,12.20
2017-12-02T22:54:46.447Z,14.30
2017-12-02T22:57:13.992Z,14.32
2017-12-02T22:59:41.553Z,14.68
2017-12-02T23:02:10.589Z,14.02
2017-12-02T23:04:38.166Z,15.35
2017-12-02T23:07:05.704Z,12.95
2017-12-02T23:09:33.246Z,14.38
2017-12-02T23:12:00.815Z,14.73
2017-12-02T23:14:28.375Z,12.07
2017-12-02T23:16:55.931Z,13.35
2017-12-02T23:19:23.476Z,11.90
2017-12-02T23:21:51.041Z,12.15
2017-12-02T23:24:18.576Z,11.57
2017-12-02T23:26:46.125Z,12.23
2017-12-02T23:29:13.671Z,12.43
2017-12-02T23:31:41.236Z,11.32
2017-12-02T23:34:10.272Z,11.77
2017-12-02T23:36:37.860Z,10.45
2017-12-02T23:39:05.389Z,9.90
2017-12-02T23:41:32.974Z,11.40
2017-12-02T23:44:00.520Z,11.90
2017-12-02T23:46:28.091Z,11.35
2017-12-02T23:48:56.397Z,12.75
2017-12-02T23:51:23.952Z,11.75
2017-12-02T23:53:51.503Z,14.40
2017-12-02T23:56:19.041Z,13.77
2017-12-02T23:58:47.390Z,15.10
